Hlavní strana
METAR-TAF:

METAR-TAF

Letiště :

Gafsa, Tunisko

zeměpisná šířka: 34-25N, zeměpisná délka: 008-49E, výška: 313 m

Aktuální stav počasí

Zpráva byla vytvořena před 35 minutami, v 14:00 UTC
Západojihozápadní vítr 10 kt, proměnlivý mezi jižním a západním
Teplota 14°C
Vlhkost vzduchu 36%
Tlak 1019 hPa
Viditelnost 10 km a více
Skoro jasno ve výšce 4000 ft

METAR: DTTF 191400Z 24010KT 190V270 9999 FEW040 14/M01 Q1019 NOSIG

Čas: 15:35 (14:35 UTC)

Předpověď počasí

Zpráva byla vytvořena před 2 hodinami a 35 minutami, v 12:00 UTC
Předpověď platná od 19 v 13 UTC do 19 v 22 UTC
Západojihozápadní vítr 11 kt
Viditelnost 10 km a více
Skoro jasno ve výšce 4000 ft
Změna
od 19 v 17 UTC do 19 v 19 UTC
vítr z různých směrů 3 kt

TAF: DTTF 191200Z 1913/1922 24011KT 9999 FEW040 BECMG 1917/1919 VRB03KT

Stav a předpovědi počasí z více než 4 000 letišť (zprávy METAR a TAF).

Červené a žluté tečky na mapě představují dostupné meteorologické stanice.

Když kurzor umístíte na tečku, zobrazí se název stanice.

Pak kliknutím zobrazíte stav a předpověď počasí.

Chcete-li změnit mapu, kliknutím na zelené tlačítko se znaménkem +mapu přiblížíte, kliknutím na zelené tlačítko se znaménkem – mapu oddálíte a kliknutím na zelené šipky přejdete na sousední mapy.


METAR-TAF: